EJU53RD LEBL-EGKK
Flight info
| Callsign | EJU53RD |
|---|---|
| Flight time | 1h 40m |
| Altitude | 33000 |
| Route | NATPI1S NATPI DCT EVNAM DCT AGN DCT SECHE DCT UVELI DCT CNA DCT MANAK DCT EPAPU UM184 EKRAS UT507 REVTU UP88 VASUX VASUX1G |
| Aircraft | A32N/M-V/N |
Departure
| Time | 2026-05-04 01:17 |
|---|---|
| Airport | Josep Tarradellas Barcelona-El Prat Airport (LEBL) |
Arrival
| Time | 2026-05-04 02:58 |
|---|---|
| Airport | London Gatwick Airport (EGKK) |
| Time | Latitude | Longitude | Altitude | Speed | Heading |
|---|---|---|---|---|---|
| 2026-05-04 00:56 | 41.30703 | 2.08956 | 18 ft | 0 kts | 243° |
| 2026-05-04 01:08 | 41.30709 | 2.08970 | 18 ft | 3 kts | 222° |
| 2026-05-04 01:09 | 41.30725 | 2.08982 | 19 ft | 3 kts | 182° |
| 2026-05-04 01:09 | 41.30745 | 2.08980 | 18 ft | 3 kts | 166° |
| 2026-05-04 01:09 | 41.30764 | 2.08973 | 21 ft | 2 kts | 157° |
| 2026-05-04 01:09 | 41.30773 | 2.08968 | 21 ft | 1 kts | 156° |
| 2026-05-04 01:10 | 41.30774 | 2.08967 | 21 ft | 0 kts | 156° |
| 2026-05-04 01:11 | 41.30754 | 2.08979 | 19 ft | 9 kts | 156° |
| 2026-05-04 01:12 | 41.30675 | 2.08994 | 18 ft | 14 kts | 197° |
| 2026-05-04 01:12 | 41.30587 | 2.09028 | 18 ft | 14 kts | 172° |
| 2026-05-04 01:12 | 41.30434 | 2.08974 | 17 ft | 35 kts | 200° |
| 2026-05-04 01:12 | 41.30196 | 2.08857 | 20 ft | 37 kts | 206° |
| 2026-05-04 01:13 | 41.29981 | 2.08669 | 20 ft | 37 kts | 215° |
| 2026-05-04 01:13 | 41.29767 | 2.08477 | 18 ft | 37 kts | 210° |
| 2026-05-04 01:13 | 41.29664 | 2.08263 | 20 ft | 25 kts | 241° |
| 2026-05-04 01:13 | 41.29544 | 2.08266 | 17 ft | 23 kts | 154° |
| 2026-05-04 01:14 | 41.29363 | 2.08379 | 17 ft | 33 kts | 156° |
| 2026-05-04 01:14 | 41.29114 | 2.08407 | 17 ft | 40 kts | 199° |
| 2026-05-04 01:14 | 41.28851 | 2.08283 | 18 ft | 39 kts | 199° |
| 2026-05-04 01:14 | 41.28725 | 2.08239 | 18 ft | 14 kts | 163° |
| 2026-05-04 01:15 | 41.28712 | 2.08289 | 18 ft | 0 kts | 72° |
| 2026-05-04 01:15 | 41.28713 | 2.08292 | 18 ft | 2 kts | 72° |
| 2026-05-04 01:15 | 41.28736 | 2.08378 | 18 ft | 14 kts | 68° |
| 2026-05-04 01:15 | 41.28810 | 2.08501 | 19 ft | 20 kts | 17° |
| 2026-05-04 01:16 | 41.28825 | 2.08507 | 17 ft | 0 kts | 21° |
| 2026-05-04 01:16 | 41.28884 | 2.08537 | 18 ft | 36 kts | 19° |
| 2026-05-04 01:16 | 41.29356 | 2.08749 | 15 ft | 103 kts | 18° |
| 2026-05-04 01:16 | 41.30194 | 2.09122 | 59 ft | 145 kts | 17° |
| 2026-05-04 01:17 | 41.31162 | 2.09570 | 542 ft | 146 kts | 19° |
| 2026-05-04 01:17 | 41.32077 | 2.10159 | 1109 ft | 148 kts | 27° |
| 2026-05-04 01:17 | 41.32957 | 2.10944 | 1423 ft | 166 kts | 53° |
| 2026-05-04 01:17 | 41.33352 | 2.12434 | 1689 ft | 183 kts | 84° |
| 2026-05-04 01:18 | 41.33394 | 2.14212 | 1955 ft | 201 kts | 92° |
| 2026-05-04 01:18 | 41.33408 | 2.16146 | 2448 ft | 214 kts | 85° |
| 2026-05-04 01:18 | 41.33748 | 2.18081 | 3251 ft | 218 kts | 70° |
| 2026-05-04 01:18 | 41.34442 | 2.19901 | 4066 ft | 224 kts | 58° |
| 2026-05-04 01:19 | 41.35372 | 2.21602 | 4873 ft | 233 kts | 51° |
| 2026-05-04 01:19 | 41.36434 | 2.23242 | 5830 ft | 233 kts | 47° |
| 2026-05-04 01:19 | 41.37523 | 2.24830 | 6855 ft | 234 kts | 47° |
| 2026-05-04 01:19 | 41.38640 | 2.26444 | 7738 ft | 240 kts | 46° |
| 2026-05-04 01:20 | 41.39778 | 2.28097 | 8643 ft | 244 kts | 46° |
| 2026-05-04 01:20 | 41.40933 | 2.29787 | 9539 ft | 249 kts | 47° |
| 2026-05-04 01:20 | 41.42114 | 2.31514 | 10387 ft | 255 kts | 44° |
| 2026-05-04 01:20 | 41.43573 | 2.32850 | 11149 ft | 257 kts | 17° |
| 2026-05-04 01:21 | 41.44710 | 2.33253 | 11660 ft | 257 kts | 5° |
| 2026-05-04 01:21 | 41.46542 | 2.33670 | 12169 ft | 279 kts | 5° |
| 2026-05-04 01:21 | 41.48533 | 2.34125 | 12552 ft | 303 kts | 5° |
| 2026-05-04 01:21 | 41.50696 | 2.34632 | 12905 ft | 328 kts | 6° |
| 2026-05-04 01:22 | 41.53022 | 2.35190 | 13224 ft | 352 kts | 6° |
| 2026-05-04 01:22 | 41.55506 | 2.35795 | 13645 ft | 371 kts | 6° |
| 2026-05-04 01:22 | 41.58067 | 2.36428 | 14395 ft | 376 kts | 6° |
| 2026-05-04 01:22 | 41.60659 | 2.37068 | 15150 ft | 382 kts | 6° |
| 2026-05-04 01:23 | 41.63291 | 2.37639 | 15869 ft | 384 kts | 359° |
| 2026-05-04 01:23 | 41.65929 | 2.37329 | 16603 ft | 379 kts | 340° |
| 2026-05-04 01:23 | 41.68318 | 2.35946 | 17304 ft | 374 kts | 321° |
| 2026-05-04 01:23 | 41.70229 | 2.33650 | 18015 ft | 368 kts | 303° |
| 2026-05-04 01:24 | 41.71474 | 2.30699 | 18637 ft | 363 kts | 284° |
| 2026-05-04 01:24 | 41.71959 | 2.27421 | 19371 ft | 359 kts | 272° |
| 2026-05-04 01:24 | 41.72187 | 2.24084 | 19995 ft | 362 kts | 271° |
| 2026-05-04 01:24 | 41.72413 | 2.20705 | 20596 ft | 367 kts | 272° |
| 2026-05-04 01:25 | 41.72672 | 2.17292 | 21243 ft | 371 kts | 272° |
| 2026-05-04 01:25 | 41.72962 | 2.13843 | 21901 ft | 375 kts | 273° |
| 2026-05-04 01:25 | 41.73271 | 2.10361 | 22505 ft | 379 kts | 273° |
| 2026-05-04 01:25 | 41.73591 | 2.06839 | 23115 ft | 383 kts | 273° |
| 2026-05-04 01:26 | 41.73915 | 2.03286 | 23711 ft | 387 kts | 273° |
| 2026-05-04 01:26 | 41.74241 | 1.99696 | 24235 ft | 390 kts | 273° |
| 2026-05-04 01:26 | 41.74567 | 1.96079 | 24784 ft | 392 kts | 273° |
| 2026-05-04 01:26 | 41.74894 | 1.92440 | 25284 ft | 396 kts | 273° |
| 2026-05-04 01:27 | 41.75222 | 1.88770 | 25836 ft | 398 kts | 273° |
| 2026-05-04 01:27 | 41.75552 | 1.85075 | 26342 ft | 400 kts | 273° |
| 2026-05-04 01:27 | 41.75881 | 1.81358 | 26814 ft | 403 kts | 273° |
| 2026-05-04 01:27 | 41.76304 | 1.77629 | 27281 ft | 410 kts | 280° |
| 2026-05-04 01:28 | 41.77332 | 1.74004 | 27639 ft | 422 kts | 294° |
| 2026-05-04 01:28 | 41.79008 | 1.70727 | 28099 ft | 432 kts | 307° |
| 2026-05-04 01:28 | 41.81247 | 1.67977 | 28521 ft | 443 kts | 320° |
| 2026-05-04 01:28 | 41.83951 | 1.65913 | 28914 ft | 453 kts | 333° |
| 2026-05-04 01:29 | 41.86928 | 1.64431 | 29313 ft | 458 kts | 336° |
| 2026-05-04 01:29 | 41.89954 | 1.63047 | 29698 ft | 461 kts | 337° |
| 2026-05-04 01:29 | 41.93003 | 1.61660 | 30085 ft | 464 kts | 337° |
| 2026-05-04 01:29 | 41.96063 | 1.60247 | 30431 ft | 466 kts | 336° |
| 2026-05-04 01:30 | 41.99127 | 1.58811 | 30780 ft | 468 kts | 336° |
| 2026-05-04 01:30 | 42.02208 | 1.57354 | 31128 ft | 470 kts | 336° |
| 2026-05-04 01:30 | 42.05286 | 1.55892 | 31585 ft | 469 kts | 336° |
| 2026-05-04 01:30 | 42.08353 | 1.54434 | 32076 ft | 467 kts | 336° |
| 2026-05-04 01:31 | 42.11410 | 1.52978 | 32561 ft | 465 kts | 335° |
| 2026-05-04 01:31 | 42.14454 | 1.51528 | 32933 ft | 464 kts | 335° |
| 2026-05-04 01:31 | 42.17488 | 1.50080 | 33003 ft | 462 kts | 335° |
| 2026-05-04 01:32 | 42.23545 | 1.47181 | 33009 ft | 462 kts | 335° |
| 2026-05-04 01:32 | 42.29603 | 1.44276 | 33022 ft | 462 kts | 335° |
| 2026-05-04 01:33 | 42.35624 | 1.41385 | 33005 ft | 462 kts | 335° |
| 2026-05-04 01:33 | 42.41685 | 1.38467 | 33009 ft | 463 kts | 335° |
| 2026-05-04 01:34 | 42.47753 | 1.35539 | 32999 ft | 463 kts | 335° |
| 2026-05-04 01:34 | 42.53822 | 1.32606 | 32988 ft | 463 kts | 335° |
| 2026-05-04 01:35 | 42.59892 | 1.29665 | 32996 ft | 463 kts | 335° |
| 2026-05-04 01:35 | 42.65994 | 1.26702 | 32979 ft | 467 kts | 335° |
| 2026-05-04 01:36 | 42.72172 | 1.23955 | 32967 ft | 471 kts | 342° |
| 2026-05-04 01:36 | 42.78704 | 1.22747 | 32958 ft | 476 kts | 350° |
| 2026-05-04 01:37 | 42.85286 | 1.21836 | 32956 ft | 475 kts | 349° |
| 2026-05-04 01:37 | 42.91871 | 1.20917 | 32954 ft | 476 kts | 349° |
| 2026-05-04 01:38 | 42.98461 | 1.20006 | 32956 ft | 475 kts | 349° |
| 2026-05-04 01:38 | 43.05063 | 1.19094 | 32947 ft | 479 kts | 349° |
| 2026-05-04 01:39 | 43.11679 | 1.18179 | 32937 ft | 477 kts | 349° |
| 2026-05-04 01:39 | 43.18297 | 1.17260 | 32939 ft | 478 kts | 349° |
| 2026-05-04 01:40 | 43.24915 | 1.16341 | 32938 ft | 478 kts | 349° |
| 2026-05-04 01:40 | 43.31483 | 1.15427 | 32937 ft | 478 kts | 349° |
| 2026-05-04 01:41 | 43.38101 | 1.14503 | 32959 ft | 478 kts | 349° |
| 2026-05-04 01:41 | 43.44724 | 1.13575 | 32940 ft | 480 kts | 349° |
| 2026-05-04 01:42 | 43.51373 | 1.12642 | 32939 ft | 480 kts | 349° |
| 2026-05-04 01:42 | 43.57985 | 1.11467 | 32942 ft | 475 kts | 341° |
| 2026-05-04 01:43 | 43.64059 | 1.08251 | 32947 ft | 464 kts | 325° |
| 2026-05-04 01:43 | 43.69567 | 1.03614 | 32939 ft | 463 kts | 323° |
| 2026-05-04 01:44 | 43.75064 | 0.98976 | 32941 ft | 463 kts | 323° |
| 2026-05-04 01:44 | 43.80556 | 0.94318 | 32942 ft | 463 kts | 322° |
| 2026-05-04 01:45 | 43.86050 | 0.89640 | 32942 ft | 465 kts | 322° |
| 2026-05-04 01:45 | 43.94749 | 0.83477 | 32944 ft | 470 kts | 329° |
| 2026-05-04 01:46 | 44.00678 | 0.79648 | 32939 ft | 470 kts | 329° |
| 2026-05-04 01:46 | 44.06612 | 0.75806 | 32967 ft | 472 kts | 329° |
| 2026-05-04 01:47 | 44.12539 | 0.71966 | 32939 ft | 472 kts | 329° |
| 2026-05-04 01:47 | 44.18496 | 0.68100 | 32939 ft | 472 kts | 329° |
| 2026-05-04 01:48 | 44.24453 | 0.64223 | 32939 ft | 473 kts | 329° |
| 2026-05-04 01:48 | 44.30414 | 0.60335 | 32948 ft | 473 kts | 329° |
| 2026-05-04 01:49 | 44.36379 | 0.56437 | 32944 ft | 473 kts | 329° |
| 2026-05-04 01:49 | 44.42343 | 0.52529 | 32959 ft | 473 kts | 330° |
| 2026-05-04 01:50 | 44.48324 | 0.48587 | 32948 ft | 475 kts | 329° |
| 2026-05-04 01:50 | 44.54291 | 0.44625 | 32953 ft | 475 kts | 329° |
| 2026-05-04 01:51 | 44.60262 | 0.40652 | 32956 ft | 475 kts | 329° |
| 2026-05-04 01:51 | 44.66249 | 0.36663 | 32954 ft | 478 kts | 329° |
| 2026-05-04 01:52 | 44.72253 | 0.32655 | 32960 ft | 477 kts | 329° |
| 2026-05-04 01:52 | 44.78209 | 0.28668 | 32959 ft | 477 kts | 329° |
| 2026-05-04 01:53 | 44.84200 | 0.24648 | 32960 ft | 477 kts | 329° |
| 2026-05-04 01:53 | 44.90193 | 0.20618 | 32957 ft | 477 kts | 329° |
| 2026-05-04 01:54 | 44.96180 | 0.16583 | 32952 ft | 477 kts | 329° |
| 2026-05-04 01:54 | 45.02180 | 0.12529 | 32945 ft | 480 kts | 329° |
| 2026-05-04 01:55 | 45.08203 | 0.08450 | 32946 ft | 479 kts | 329° |
| 2026-05-04 01:55 | 45.14217 | 0.04368 | 32947 ft | 479 kts | 329° |
| 2026-05-04 01:56 | 45.20231 | 0.00276 | 32963 ft | 479 kts | 329° |
| 2026-05-04 01:56 | 45.26201 | -0.03789 | 32944 ft | 473 kts | 328° |
| 2026-05-04 01:57 | 45.32147 | -0.07857 | 32944 ft | 475 kts | 328° |
| 2026-05-04 01:57 | 45.38094 | -0.11932 | 32947 ft | 474 kts | 328° |
| 2026-05-04 01:58 | 45.44043 | -0.16019 | 32953 ft | 475 kts | 328° |
| 2026-05-04 01:58 | 45.49995 | -0.20116 | 32959 ft | 475 kts | 328° |
| 2026-05-04 01:59 | 45.55944 | -0.24222 | 32964 ft | 475 kts | 328° |
| 2026-05-04 01:59 | 45.61895 | -0.28338 | 32966 ft | 476 kts | 328° |
| 2026-05-04 02:00 | 45.67574 | -0.33006 | 32961 ft | 466 kts | 317° |
| 2026-05-04 02:00 | 45.72650 | -0.38717 | 32954 ft | 464 kts | 315° |
| 2026-05-04 02:01 | 45.77695 | -0.44385 | 32951 ft | 464 kts | 315° |
| 2026-05-04 02:01 | 45.82769 | -0.50113 | 32943 ft | 464 kts | 315° |
| 2026-05-04 02:02 | 45.87833 | -0.55852 | 32947 ft | 464 kts | 315° |
| 2026-05-04 02:02 | 45.92895 | -0.61604 | 32939 ft | 464 kts | 315° |
| 2026-05-04 02:03 | 45.97954 | -0.67367 | 32960 ft | 464 kts | 315° |
| 2026-05-04 02:03 | 46.03006 | -0.73136 | 32947 ft | 464 kts | 315° |
| 2026-05-04 02:04 | 46.08055 | -0.78914 | 32947 ft | 464 kts | 315° |
| 2026-05-04 02:04 | 46.13160 | -0.84774 | 32949 ft | 467 kts | 315° |
| 2026-05-04 02:05 | 46.18227 | -0.90539 | 32954 ft | 470 kts | 319° |
| 2026-05-04 02:05 | 46.24134 | -0.94847 | 32962 ft | 485 kts | 337° |
| 2026-05-04 02:06 | 46.30760 | -0.97057 | 32961 ft | 489 kts | 343° |
| 2026-05-04 02:06 | 46.37417 | -0.99106 | 32964 ft | 490 kts | 343° |
| 2026-05-04 02:07 | 46.42963 | -1.00817 | 32956 ft | 490 kts | 343° |
| 2026-05-04 02:07 | 46.49634 | -1.02873 | 32959 ft | 490 kts | 343° |
| 2026-05-04 02:08 | 46.56306 | -1.04933 | 32961 ft | 490 kts | 343° |
| 2026-05-04 02:08 | 46.62996 | -1.07006 | 32961 ft | 492 kts | 343° |
| 2026-05-04 02:09 | 46.69687 | -1.09081 | 32963 ft | 492 kts | 343° |
| 2026-05-04 02:09 | 46.76381 | -1.11164 | 32963 ft | 492 kts | 343° |
| 2026-05-04 02:10 | 46.83076 | -1.13253 | 32962 ft | 491 kts | 343° |
| 2026-05-04 02:10 | 46.89765 | -1.15345 | 32960 ft | 492 kts | 343° |
| 2026-05-04 02:11 | 46.96450 | -1.17441 | 32967 ft | 491 kts | 343° |
| 2026-05-04 02:11 | 47.03149 | -1.19548 | 32961 ft | 493 kts | 343° |
| 2026-05-04 02:12 | 47.09845 | -1.21658 | 32960 ft | 492 kts | 343° |
| 2026-05-04 02:12 | 47.16543 | -1.23775 | 32984 ft | 493 kts | 343° |
| 2026-05-04 02:13 | 47.23270 | -1.25907 | 32963 ft | 495 kts | 343° |
| 2026-05-04 02:13 | 47.29999 | -1.28043 | 32963 ft | 495 kts | 343° |
| 2026-05-04 02:14 | 47.36727 | -1.30185 | 32961 ft | 494 kts | 343° |
| 2026-05-04 02:14 | 47.43453 | -1.32333 | 32961 ft | 494 kts | 343° |
| 2026-05-04 02:15 | 47.50180 | -1.34487 | 32964 ft | 494 kts | 343° |
| 2026-05-04 02:15 | 47.56902 | -1.36644 | 32965 ft | 494 kts | 343° |
| 2026-05-04 02:16 | 47.63627 | -1.38809 | 32965 ft | 495 kts | 343° |
| 2026-05-04 02:16 | 47.70359 | -1.40917 | 32959 ft | 496 kts | 347° |
| 2026-05-04 02:17 | 47.77279 | -1.41642 | 32963 ft | 499 kts | 354° |
| 2026-05-04 02:17 | 47.84226 | -1.42175 | 32966 ft | 500 kts | 354° |
| 2026-05-04 02:18 | 47.91137 | -1.42704 | 32966 ft | 500 kts | 354° |
| 2026-05-04 02:18 | 47.98086 | -1.43229 | 32969 ft | 500 kts | 354° |
| 2026-05-04 02:19 | 48.05040 | -1.43754 | 32967 ft | 500 kts | 354° |
| 2026-05-04 02:19 | 48.11997 | -1.44250 | 32969 ft | 500 kts | 354° |
| 2026-05-04 02:20 | 48.18947 | -1.44744 | 32964 ft | 500 kts | 354° |
| 2026-05-04 02:20 | 48.25886 | -1.45242 | 32966 ft | 498 kts | 354° |
| 2026-05-04 02:21 | 48.32817 | -1.45742 | 32966 ft | 499 kts | 354° |
| 2026-05-04 02:21 | 48.39753 | -1.46244 | 32966 ft | 499 kts | 354° |
| 2026-05-04 02:22 | 48.46673 | -1.46745 | 32967 ft | 496 kts | 354° |
| 2026-05-04 02:22 | 48.53564 | -1.47246 | 32967 ft | 497 kts | 354° |
| 2026-05-04 02:23 | 48.60465 | -1.47750 | 32964 ft | 496 kts | 354° |
| 2026-05-04 02:23 | 48.67314 | -1.48251 | 32966 ft | 495 kts | 354° |
| 2026-05-04 02:24 | 48.74231 | -1.48758 | 32965 ft | 495 kts | 354° |
| 2026-05-04 02:24 | 48.81110 | -1.49264 | 32967 ft | 495 kts | 354° |
| 2026-05-04 02:25 | 48.87951 | -1.49770 | 32965 ft | 495 kts | 353° |
| 2026-05-04 02:25 | 48.94693 | -1.51456 | 32967 ft | 490 kts | 344° |
| 2026-05-04 02:26 | 49.01372 | -1.53594 | 32966 ft | 490 kts | 344° |
| 2026-05-04 02:26 | 49.08051 | -1.55728 | 32978 ft | 490 kts | 344° |
| 2026-05-04 02:27 | 49.14701 | -1.57871 | 32966 ft | 489 kts | 344° |
| 2026-05-04 02:27 | 49.21358 | -1.60025 | 32971 ft | 489 kts | 344° |
| 2026-05-04 02:28 | 49.28011 | -1.62183 | 32971 ft | 489 kts | 344° |
| 2026-05-04 02:28 | 49.34658 | -1.64345 | 32968 ft | 488 kts | 344° |
| 2026-05-04 02:29 | 49.41295 | -1.66510 | 32968 ft | 488 kts | 344° |
| 2026-05-04 02:29 | 49.47937 | -1.68683 | 32968 ft | 488 kts | 344° |
| 2026-05-04 02:30 | 49.54572 | -1.70856 | 32968 ft | 486 kts | 345° |
| 2026-05-04 02:30 | 49.57940 | -1.71458 | 32965 ft | 490 kts | 356° |
| 2026-05-04 02:30 | 49.61351 | -1.71114 | 32965 ft | 494 kts | 8° |
| 2026-05-04 02:31 | 49.64692 | -1.69815 | 32969 ft | 496 kts | 19° |
| 2026-05-04 02:31 | 49.67935 | -1.68022 | 32971 ft | 496 kts | 19° |
| 2026-05-04 02:31 | 49.74414 | -1.64452 | 32555 ft | 491 kts | 19° |
| 2026-05-04 02:32 | 49.77615 | -1.62683 | 31982 ft | 488 kts | 19° |
| 2026-05-04 02:32 | 49.80777 | -1.60932 | 31191 ft | 489 kts | 19° |
| 2026-05-04 02:32 | 49.84018 | -1.59133 | 30335 ft | 490 kts | 19° |
| 2026-05-04 02:32 | 49.87223 | -1.57351 | 29610 ft | 486 kts | 19° |
| 2026-05-04 02:33 | 49.90385 | -1.55590 | 28971 ft | 480 kts | 19° |
| 2026-05-04 02:33 | 49.93504 | -1.53849 | 28333 ft | 474 kts | 19° |
| 2026-05-04 02:33 | 49.96546 | -1.52149 | 27711 ft | 468 kts | 19° |
| 2026-05-04 02:33 | 49.99579 | -1.50454 | 27207 ft | 459 kts | 19° |
| 2026-05-04 02:34 | 50.02588 | -1.48835 | 26571 ft | 454 kts | 17° |
| 2026-05-04 02:34 | 50.05587 | -1.47378 | 25964 ft | 449 kts | 16° |
| 2026-05-04 02:34 | 50.08556 | -1.45975 | 25379 ft | 444 kts | 16° |
| 2026-05-04 02:34 | 50.11496 | -1.44578 | 24802 ft | 439 kts | 16° |
| 2026-05-04 02:35 | 50.14397 | -1.43181 | 24238 ft | 434 kts | 17° |
| 2026-05-04 02:35 | 50.17265 | -1.41787 | 23690 ft | 429 kts | 17° |
| 2026-05-04 02:35 | 50.20098 | -1.40402 | 23160 ft | 422 kts | 17° |
| 2026-05-04 02:35 | 50.22880 | -1.39037 | 22985 ft | 419 kts | 17° |
| 2026-05-04 02:36 | 50.25685 | -1.37658 | 22955 ft | 424 kts | 17° |
| 2026-05-04 02:36 | 50.28495 | -1.36272 | 22937 ft | 422 kts | 17° |
| 2026-05-04 02:36 | 50.31281 | -1.34895 | 22583 ft | 419 kts | 17° |
| 2026-05-04 02:36 | 50.34029 | -1.33536 | 22032 ft | 416 kts | 17° |
| 2026-05-04 02:37 | 50.36779 | -1.32174 | 21393 ft | 413 kts | 17° |
| 2026-05-04 02:37 | 50.39507 | -1.30822 | 20773 ft | 410 kts | 17° |
| 2026-05-04 02:37 | 50.42214 | -1.29479 | 20170 ft | 406 kts | 17° |
| 2026-05-04 02:37 | 50.44888 | -1.28150 | 19582 ft | 402 kts | 17° |
| 2026-05-04 02:38 | 50.47542 | -1.26816 | 18970 ft | 399 kts | 19° |
| 2026-05-04 02:38 | 50.50061 | -1.25054 | 18373 ft | 397 kts | 28° |
| 2026-05-04 02:38 | 50.52333 | -1.22724 | 17753 ft | 394 kts | 38° |
| 2026-05-04 02:38 | 50.54423 | -1.19983 | 17158 ft | 389 kts | 40° |
| 2026-05-04 02:39 | 50.56487 | -1.17266 | 16573 ft | 385 kts | 40° |
| 2026-05-04 02:39 | 50.58537 | -1.14579 | 16004 ft | 381 kts | 40° |
| 2026-05-04 02:39 | 50.60562 | -1.11921 | 15437 ft | 377 kts | 40° |
| 2026-05-04 02:39 | 50.62564 | -1.09287 | 14884 ft | 374 kts | 40° |
| 2026-05-04 02:40 | 50.64549 | -1.06671 | 14344 ft | 370 kts | 40° |
| 2026-05-04 02:40 | 50.66405 | -1.03884 | 13796 ft | 367 kts | 49° |
| 2026-05-04 02:40 | 50.68016 | -1.00800 | 13237 ft | 362 kts | 52° |
| 2026-05-04 02:40 | 50.69595 | -0.97748 | 13010 ft | 360 kts | 52° |
| 2026-05-04 02:41 | 50.71189 | -0.94680 | 12952 ft | 362 kts | 52° |
| 2026-05-04 02:41 | 50.72787 | -0.91602 | 12948 ft | 363 kts | 51° |
| 2026-05-04 02:41 | 50.74383 | -0.88523 | 12950 ft | 363 kts | 51° |
| 2026-05-04 02:41 | 50.75980 | -0.85438 | 12954 ft | 363 kts | 52° |
| 2026-05-04 02:42 | 50.77577 | -0.82348 | 12955 ft | 363 kts | 52° |
| 2026-05-04 02:42 | 50.79159 | -0.79281 | 12912 ft | 357 kts | 52° |
| 2026-05-04 02:42 | 50.80545 | -0.76106 | 12813 ft | 344 kts | 63° |
| 2026-05-04 02:42 | 50.81412 | -0.72673 | 12675 ft | 329 kts | 77° |
| 2026-05-04 02:43 | 50.81846 | -0.69209 | 12548 ft | 315 kts | 82° |
| 2026-05-04 02:43 | 50.82232 | -0.65850 | 12254 ft | 308 kts | 81° |
| 2026-05-04 02:43 | 50.82620 | -0.62535 | 11826 ft | 306 kts | 81° |
| 2026-05-04 02:43 | 50.83005 | -0.59239 | 11410 ft | 304 kts | 81° |
| 2026-05-04 02:44 | 50.83387 | -0.55963 | 11002 ft | 302 kts | 81° |
| 2026-05-04 02:44 | 50.83765 | -0.52704 | 10587 ft | 300 kts | 81° |
| 2026-05-04 02:44 | 50.84139 | -0.49464 | 10190 ft | 299 kts | 81° |
| 2026-05-04 02:44 | 50.84510 | -0.46240 | 9781 ft | 297 kts | 81° |
| 2026-05-04 02:45 | 50.84868 | -0.43125 | 9376 ft | 295 kts | 81° |
| 2026-05-04 02:45 | 50.85238 | -0.39896 | 8952 ft | 293 kts | 81° |
| 2026-05-04 02:45 | 50.85599 | -0.36740 | 8559 ft | 290 kts | 81° |
| 2026-05-04 02:45 | 50.85956 | -0.33606 | 8155 ft | 288 kts | 81° |
| 2026-05-04 02:46 | 50.86307 | -0.30519 | 7958 ft | 279 kts | 81° |
| 2026-05-04 02:46 | 50.86642 | -0.27572 | 7850 ft | 266 kts | 81° |
| 2026-05-04 02:46 | 50.86962 | -0.24750 | 7732 ft | 255 kts | 81° |
| 2026-05-04 02:46 | 50.87269 | -0.22008 | 7473 ft | 252 kts | 82° |
| 2026-05-04 02:47 | 50.87563 | -0.19279 | 7156 ft | 251 kts | 82° |
| 2026-05-04 02:47 | 50.87850 | -0.16600 | 6838 ft | 250 kts | 82° |
| 2026-05-04 02:47 | 50.88143 | -0.13885 | 6523 ft | 249 kts | 82° |
| 2026-05-04 02:47 | 50.88474 | -0.11205 | 6135 ft | 248 kts | 81° |
| 2026-05-04 02:48 | 50.88844 | -0.08548 | 5724 ft | 247 kts | 69° |
| 2026-05-04 02:48 | 50.89807 | -0.06323 | 5329 ft | 246 kts | 46° |
| 2026-05-04 02:48 | 50.91026 | -0.04372 | 4939 ft | 245 kts | 45° |
| 2026-05-04 02:48 | 50.92205 | -0.02493 | 4580 ft | 243 kts | 45° |
| 2026-05-04 02:49 | 50.93390 | -0.00597 | 4216 ft | 241 kts | 45° |
| 2026-05-04 02:49 | 50.94598 | 0.01224 | 3839 ft | 239 kts | 33° |
| 2026-05-04 02:49 | 50.96130 | 0.02090 | 3461 ft | 234 kts | 2° |
| 2026-05-04 02:49 | 50.97731 | 0.02430 | 3114 ft | 233 kts | 21° |
| 2026-05-04 02:50 | 50.99109 | 0.03762 | 3018 ft | 237 kts | 34° |
| 2026-05-04 02:50 | 51.00448 | 0.05257 | 2997 ft | 234 kts | 34° |
| 2026-05-04 02:50 | 51.01783 | 0.06751 | 3000 ft | 235 kts | 34° |
| 2026-05-04 02:50 | 51.03120 | 0.08248 | 3002 ft | 235 kts | 34° |
| 2026-05-04 02:51 | 51.04539 | 0.09525 | 3002 ft | 239 kts | 14° |
| 2026-05-04 02:51 | 51.06143 | 0.10064 | 2983 ft | 232 kts | 8° |
| 2026-05-04 02:51 | 51.07740 | 0.10499 | 2936 ft | 235 kts | 8° |
| 2026-05-04 02:51 | 51.09345 | 0.10926 | 3002 ft | 232 kts | 8° |
| 2026-05-04 02:52 | 51.10934 | 0.11363 | 3006 ft | 232 kts | 8° |
| 2026-05-04 02:52 | 51.12525 | 0.11814 | 3010 ft | 232 kts | 8° |
| 2026-05-04 02:52 | 51.14114 | 0.12273 | 3008 ft | 232 kts | 8° |
| 2026-05-04 02:52 | 51.15701 | 0.12736 | 3010 ft | 232 kts | 8° |
| 2026-05-04 02:53 | 51.17295 | 0.12919 | 3009 ft | 229 kts | 345° |
| 2026-05-04 02:53 | 51.18635 | 0.11663 | 3013 ft | 226 kts | 312° |
| 2026-05-04 02:53 | 51.19300 | 0.10395 | 3010 ft | 225 kts | 304° |
| 2026-05-04 02:53 | 51.19842 | 0.08103 | 3006 ft | 223 kts | 272° |
| 2026-05-04 02:54 | 51.19275 | 0.05006 | 3008 ft | 224 kts | 240° |
| 2026-05-04 02:54 | 51.18742 | 0.03604 | 2995 ft | 214 kts | 239° |
| 2026-05-04 02:54 | 51.18064 | 0.01603 | 2991 ft | 197 kts | 248° |
| 2026-05-04 02:54 | 51.17647 | -0.00381 | 2993 ft | 181 kts | 254° |
| 2026-05-04 02:55 | 51.16987 | -0.04315 | 2919 ft | 180 kts | 257° |
| 2026-05-04 02:55 | 51.16713 | -0.06200 | 2660 ft | 171 kts | 258° |
| 2026-05-04 02:55 | 51.16429 | -0.08011 | 2190 ft | 174 kts | 255° |
| 2026-05-04 02:56 | 51.16134 | -0.09900 | 1723 ft | 175 kts | 259° |
| 2026-05-04 02:56 | 51.15928 | -0.11772 | 1134 ft | 167 kts | 261° |
| 2026-05-04 02:56 | 51.15719 | -0.13514 | 810 ft | 162 kts | 258° |
| 2026-05-04 02:56 | 51.15520 | -0.15270 | 590 ft | 160 kts | 255° |
| 2026-05-04 02:57 | 51.15106 | -0.16905 | 277 ft | 159 kts | 258° |
| 2026-05-04 02:57 | 51.14896 | -0.18454 | 215 ft | 119 kts | 258° |
| 2026-05-04 02:57 | 51.14762 | -0.19422 | 209 ft | 61 kts | 258° |
| 2026-05-04 02:57 | 51.14705 | -0.20000 | 207 ft | 51 kts | 278° |
| 2026-05-04 02:58 | 51.14752 | -0.20335 | 213 ft | 17 kts | 287° |
| 2026-05-04 02:58 | 51.14763 | -0.20413 | 204 ft | 0 kts | 281° |
| 2026-05-04 02:58 | 51.14763 | -0.20416 | 204 ft | 2 kts | 281° |
| 2026-05-04 02:59 | 51.14776 | -0.20509 | 207 ft | 15 kts | 282° |
| 2026-05-04 02:59 | 51.14832 | -0.20662 | 207 ft | 17 kts | 345° |
| 2026-05-04 02:59 | 51.14876 | -0.20553 | 214 ft | 13 kts | 74° |
| 2026-05-04 02:59 | 51.14903 | -0.20394 | 211 ft | 17 kts | 79° |
| 2026-05-04 03:00 | 51.14930 | -0.20179 | 204 ft | 23 kts | 78° |
| 2026-05-04 03:00 | 51.14968 | -0.19909 | 209 ft | 26 kts | 77° |
| 2026-05-04 03:00 | 51.15009 | -0.19609 | 205 ft | 29 kts | 79° |
| 2026-05-04 03:00 | 51.15054 | -0.19289 | 209 ft | 31 kts | 78° |
| 2026-05-04 03:01 | 51.15096 | -0.18993 | 207 ft | 28 kts | 77° |
| 2026-05-04 03:01 | 51.15139 | -0.18679 | 204 ft | 30 kts | 78° |
| 2026-05-04 03:01 | 51.15177 | -0.18393 | 209 ft | 17 kts | 78° |
| 2026-05-04 03:01 | 51.15201 | -0.18182 | 207 ft | 21 kts | 78° |
| 2026-05-04 03:02 | 51.15230 | -0.17961 | 214 ft | 21 kts | 78° |
| 2026-05-04 03:02 | 51.15266 | -0.17713 | 208 ft | 24 kts | 76° |
| 2026-05-04 03:02 | 51.15295 | -0.17485 | 208 ft | 17 kts | 76° |
| 2026-05-04 03:02 | 51.15361 | -0.17325 | 209 ft | 18 kts | 59° |
| 2026-05-04 03:03 | 51.15405 | -0.17122 | 215 ft | 21 kts | 69° |
| 2026-05-04 03:03 | 51.15435 | -0.16925 | 208 ft | 11 kts | 78° |
| 2026-05-04 03:03 | 51.15441 | -0.16885 | 205 ft | 7 kts | 78° |
| 2026-05-04 03:03 | 51.15484 | -0.16838 | 204 ft | 6 kts | 351° |
| 2026-05-04 03:04 | 51.15502 | -0.16845 | 204 ft | 1 kts | 346° |
| 2026-05-04 03:04 | 51.15503 | -0.16846 | 204 ft | 0 kts | 346° |